sensor_id;sensor_type;location;lat;lon;timestamp;temperature;humidity
24800;DHT22;12897;50.812;4.430;2022-12-29T00:01:10;11.90;99.90
24800;DHT22;12897;50.812;4.430;2022-12-29T00:03:38;11.80;99.90
24800;DHT22;12897;50.812;4.430;2022-12-29T00:06:05;11.70;99.90
24800;DHT22;12897;50.812;4.430;2022-12-29T00:08:33;11.80;99.90
24800;DHT22;12897;50.812;4.430;2022-12-29T00:11:11;11.80;99.90
24800;DHT22;12897;50.812;4.430;2022-12-29T00:13:42;11.80;99.90
24800;DHT22;12897;50.812;4.430;2022-12-29T00:16:28;11.80;99.90
24800;DHT22;12897;50.812;4.430;2022-12-29T00:18:56;11.80;99.90
24800;DHT22;12897;50.812;4.430;2022-12-29T00:21:24;11.70;99.90
24800;DHT22;12897;50.812;4.430;2022-12-29T00:24:15;11.80;99.90
24800;DHT22;12897;50.812;4.430;2022-12-29T00:29:49;11.90;99.90
24800;DHT22;12897;50.812;4.430;2022-12-29T00:32:34;12.00;99.90
24800;DHT22;12897;50.812;4.430;2022-12-29T00:35:43;11.90;99.90
24800;DHT22;12897;50.812;4.430;2022-12-29T00:38:09;12.00;99.90
24800;DHT22;12897;50.812;4.430;2022-12-29T00:41:00;12.00;99.90
24800;DHT22;12897;50.812;4.430;2022-12-29T00:43:45;12.00;99.90
24800;DHT22;12897;50.812;4.430;2022-12-29T00:46:36;12.00;99.90
24800;DHT22;12897;50.812;4.430;2022-12-29T00:49:01;12.00;99.90
24800;DHT22;12897;50.812;4.430;2022-12-29T00:51:47;12.00;99.90
24800;DHT22;12897;50.812;4.430;2022-12-29T00:54:16;12.10;99.90
24800;DHT22;12897;50.812;4.430;2022-12-29T00:56:47;12.10;99.90
24800;DHT22;12897;50.812;4.430;2022-12-29T00:59:15;12.10;99.90
24800;DHT22;12897;50.812;4.430;2022-12-29T01:01:46;12.10;99.90
24800;DHT22;12897;50.812;4.430;2022-12-29T01:04:14;12.00;99.90
24800;DHT22;12897;50.812;4.430;2022-12-29T01:06:42;12.10;99.90
24800;DHT22;12897;50.812;4.430;2022-12-29T01:09:10;12.10;99.90
24800;DHT22;12897;50.812;4.430;2022-12-29T01:11:55;12.10;99.90
24800;DHT22;12897;50.812;4.430;2022-12-29T01:14:23;12.20;99.90
24800;DHT22;12897;50.812;4.430;2022-12-29T01:16:51;12.00;99.90
24800;DHT22;12897;50.812;4.430;2022-12-29T01:19:20;12.00;99.90
24800;DHT22;12897;50.812;4.430;2022-12-29T01:21:48;11.90;99.90
24800;DHT22;12897;50.812;4.430;2022-12-29T01:24:17;11.90;99.90
24800;DHT22;12897;50.812;4.430;2022-12-29T01:29:24;11.60;99.90
24800;DHT22;12897;50.812;4.430;2022-12-29T01:31:52;11.60;99.90
24800;DHT22;12897;50.812;4.430;2022-12-29T01:34:21;11.60;99.90
24800;DHT22;12897;50.812;4.430;2022-12-29T01:36:49;11.60;99.90
24800;DHT22;12897;50.812;4.430;2022-12-29T01:39:16;11.60;99.90
24800;DHT22;12897;50.812;4.430;2022-12-29T01:41:44;11.70;99.90
24800;DHT22;12897;50.812;4.430;2022-12-29T01:44:50;11.70;99.90
24800;DHT22;12897;50.812;4.430;2022-12-29T01:47:25;11.70;99.90
24800;DHT22;12897;50.812;4.430;2022-12-29T01:49:54;11.60;99.90
24800;DHT22;12897;50.812;4.430;2022-12-29T01:52:26;11.40;99.90
24800;DHT22;12897;50.812;4.430;2022-12-29T01:54:55;11.30;99.90
24800;DHT22;12897;50.812;4.430;2022-12-29T01:57:27;11.30;99.90
24800;DHT22;12897;50.812;4.430;2022-12-29T02:00:08;11.40;99.90
24800;DHT22;12897;50.812;4.430;2022-12-29T02:02:32;11.40;99.90
24800;DHT22;12897;50.812;4.430;2022-12-29T02:05:03;11.30;99.90
24800;DHT22;12897;50.812;4.430;2022-12-29T02:07:32;11.30;99.90
24800;DHT22;12897;50.812;4.430;2022-12-29T02:10:01;11.20;99.90
24800;DHT22;12897;50.812;4.430;2022-12-29T02:12:41;11.20;99.90
24800;DHT22;12897;50.812;4.430;2022-12-29T02:15:09;11.10;99.90
24800;DHT22;12897;50.812;4.430;2022-12-29T02:17:57;11.00;99.90
24800;DHT22;12897;50.812;4.430;2022-12-29T02:20:28;10.90;99.90
24800;DHT22;12897;50.812;4.430;2022-12-29T02:23:24;10.80;99.90
24800;DHT22;12897;50.812;4.430;2022-12-29T02:26:22;10.70;99.90
24800;DHT22;12897;50.812;4.430;2022-12-29T02:31:37;10.60;99.90
24800;DHT22;12897;50.812;4.430;2022-12-29T02:34:30;10.60;99.90
24800;DHT22;12897;50.812;4.430;2022-12-29T02:37:05;10.60;99.90
24800;DHT22;12897;50.812;4.430;2022-12-29T02:40:02;10.60;99.90
24800;DHT22;12897;50.812;4.430;2022-12-29T02:43:14;10.60;99.90
24800;DHT22;12897;50.812;4.430;2022-12-29T02:47:41;10.60;99.90
24800;DHT22;12897;50.812;4.430;2022-12-29T02:52:48;10.50;99.90
24800;DHT22;12897;50.812;4.430;2022-12-29T02:55:12;10.40;99.90
24800;DHT22;12897;50.812;4.430;2022-12-29T02:57:41;10.20;99.90
24800;DHT22;12897;50.812;4.430;2022-12-29T03:00:11;10.20;99.90
24800;DHT22;12897;50.812;4.430;2022-12-29T03:03:00;10.10;99.90
24800;DHT22;12897;50.812;4.430;2022-12-29T03:10:59;10.10;99.90
24800;DHT22;12897;50.812;4.430;2022-12-29T03:16:24;10.00;99.90
24800;DHT22;12897;50.812;4.430;2022-12-29T03:21:48;10.00;99.90
24800;DHT22;12897;50.812;4.430;2022-12-29T03:24:32;10.00;99.90
24800;DHT22;12897;50.812;4.430;2022-12-29T03:27:02;10.00;99.90
24800;DHT22;12897;50.812;4.430;2022-12-29T03:29:33;10.00;99.90
24800;DHT22;12897;50.812;4.430;2022-12-29T03:32:02;10.00;99.90
24800;DHT22;12897;50.812;4.430;2022-12-29T03:34:33;10.10;99.90
24800;DHT22;12897;50.812;4.430;2022-12-29T03:37:14;10.00;99.90
24800;DHT22;12897;50.812;4.430;2022-12-29T03:39:41;10.00;99.90
24800;DHT22;12897;50.812;4.430;2022-12-29T03:42:23;10.00;99.90
24800;DHT22;12897;50.812;4.430;2022-12-29T03:45:11;10.10;99.90
24800;DHT22;12897;50.812;4.430;2022-12-29T03:47:39;10.10;99.90
24800;DHT22;12897;50.812;4.430;2022-12-29T03:50:07;10.20;99.90
24800;DHT22;12897;50.812;4.430;2022-12-29T03:52:35;10.30;99.90
24800;DHT22;12897;50.812;4.430;2022-12-29T03:55:03;10.20;99.90
24800;DHT22;12897;50.812;4.430;2022-12-29T03:57:30;10.20;99.90
24800;DHT22;12897;50.812;4.430;2022-12-29T03:59:58;10.20;99.90
24800;DHT22;12897;50.812;4.430;2022-12-29T04:02:25;10.10;99.90
24800;DHT22;12897;50.812;4.430;2022-12-29T04:04:53;10.10;99.90
24800;DHT22;12897;50.812;4.430;2022-12-29T04:07:21;10.10;99.90
24800;DHT22;12897;50.812;4.430;2022-12-29T04:09:48;10.10;99.90
24800;DHT22;12897;50.812;4.430;2022-12-29T04:12:16;10.10;99.90
24800;DHT22;12897;50.812;4.430;2022-12-29T04:14:43;10.10;99.90
24800;DHT22;12897;50.812;4.430;2022-12-29T04:17:11;10.10;99.90
24800;DHT22;12897;50.812;4.430;2022-12-29T04:19:38;10.10;99.90
24800;DHT22;12897;50.812;4.430;2022-12-29T04:22:17;10.10;99.90
24800;DHT22;12897;50.812;4.430;2022-12-29T04:24:51;10.10;99.90
24800;DHT22;12897;50.812;4.430;2022-12-29T04:27:25;10.10;99.90
24800;DHT22;12897;50.812;4.430;2022-12-29T04:29:54;10.20;99.90
24800;DHT22;12897;50.812;4.430;2022-12-29T04:32:21;10.20;99.90
24800;DHT22;12897;50.812;4.430;2022-12-29T04:34:49;10.20;99.90
24800;DHT22;12897;50.812;4.430;2022-12-29T04:37:16;10.20;99.90
24800;DHT22;12897;50.812;4.430;2022-12-29T04:39:44;10.20;99.90
24800;DHT22;12897;50.812;4.430;2022-12-29T04:42:11;10.30;99.90
24800;DHT22;12897;50.812;4.430;2022-12-29T04:44:39;10.40;99.90
24800;DHT22;12897;50.812;4.430;2022-12-29T04:47:06;10.40;99.90
24800;DHT22;12897;50.812;4.430;2022-12-29T04:49:34;10.40;99.90
24800;DHT22;12897;50.812;4.430;2022-12-29T04:52:01;10.40;99.90
24800;DHT22;12897;50.812;4.430;2022-12-29T04:54:30;10.50;99.90
24800;DHT22;12897;50.812;4.430;2022-12-29T04:56:57;10.60;99.90
24800;DHT22;12897;50.812;4.430;2022-12-29T04:59:25;10.60;99.90
24800;DHT22;12897;50.812;4.430;2022-12-29T05:01:53;10.70;99.90
24800;DHT22;12897;50.812;4.430;2022-12-29T05:04:20;10.80;99.90
24800;DHT22;12897;50.812;4.430;2022-12-29T05:06:48;10.80;99.90
24800;DHT22;12897;50.812;4.430;2022-12-29T05:09:15;10.80;99.90
24800;DHT22;12897;50.812;4.430;2022-12-29T05:11:43;10.90;99.90
24800;DHT22;12897;50.812;4.430;2022-12-29T05:14:19;10.90;99.90
24800;DHT22;12897;50.812;4.430;2022-12-29T05:16:54;10.90;99.90
24800;DHT22;12897;50.812;4.430;2022-12-29T05:19:32;10.80;99.90
24800;DHT22;12897;50.812;4.430;2022-12-29T05:22:07;10.80;99.90
24800;DHT22;12897;50.812;4.430;2022-12-29T05:24:41;10.80;99.90
24800;DHT22;12897;50.812;4.430;2022-12-29T05:27:16;10.90;99.90
24800;DHT22;12897;50.812;4.430;2022-12-29T05:29:44;10.90;99.90
24800;DHT22;12897;50.812;4.430;2022-12-29T05:32:11;10.90;99.90
24800;DHT22;12897;50.812;4.430;2022-12-29T05:34:39;10.90;99.90
24800;DHT22;12897;50.812;4.430;2022-12-29T05:37:06;10.90;99.90
24800;DHT22;12897;50.812;4.430;2022-12-29T05:39:34;11.00;99.90
24800;DHT22;12897;50.812;4.430;2022-12-29T05:42:01;11.00;99.90
24800;DHT22;12897;50.812;4.430;2022-12-29T05:44:29;11.10;99.90
24800;DHT22;12897;50.812;4.430;2022-12-29T05:46:56;11.10;99.90
24800;DHT22;12897;50.812;4.430;2022-12-29T05:49:24;11.10;99.90
24800;DHT22;12897;50.812;4.430;2022-12-29T05:51:52;11.00;99.90
24800;DHT22;12897;50.812;4.430;2022-12-29T05:54:19;10.90;99.90
24800;DHT22;12897;50.812;4.430;2022-12-29T05:56:47;10.90;99.90
24800;DHT22;12897;50.812;4.430;2022-12-29T05:59:14;10.90;99.90
24800;DHT22;12897;50.812;4.430;2022-12-29T06:01:42;10.80;99.90
24800;DHT22;12897;50.812;4.430;2022-12-29T06:04:09;10.70;99.90
24800;DHT22;12897;50.812;4.430;2022-12-29T06:06:37;10.70;99.90
24800;DHT22;12897;50.812;4.430;2022-12-29T06:09:30;10.80;99.90
24800;DHT22;12897;50.812;4.430;2022-12-29T06:12:11;10.90;99.90
24800;DHT22;12897;50.812;4.430;2022-12-29T06:14:39;10.90;99.90
24800;DHT22;12897;50.812;4.430;2022-12-29T06:17:06;10.80;99.90
24800;DHT22;12897;50.812;4.430;2022-12-29T06:19:34;10.70;99.90
24800;DHT22;12897;50.812;4.430;2022-12-29T06:22:02;10.70;99.90
24800;DHT22;12897;50.812;4.430;2022-12-29T06:24:37;10.70;99.90
24800;DHT22;12897;50.812;4.430;2022-12-29T06:27:05;10.60;99.90
24800;DHT22;12897;50.812;4.430;2022-12-29T06:29:32;10.60;99.90
24800;DHT22;12897;50.812;4.430;2022-12-29T06:32:02;10.60;99.90
24800;DHT22;12897;50.812;4.430;2022-12-29T06:34:30;10.70;99.90
24800;DHT22;12897;50.812;4.430;2022-12-29T06:37:00;10.70;99.90
24800;DHT22;12897;50.812;4.430;2022-12-29T06:39:28;10.80;99.90
24800;DHT22;12897;50.812;4.430;2022-12-29T06:41:56;10.70;99.90
24800;DHT22;12897;50.812;4.430;2022-12-29T06:44:24;10.80;99.90
24800;DHT22;12897;50.812;4.430;2022-12-29T06:46:51;10.90;99.90
24800;DHT22;12897;50.812;4.430;2022-12-29T06:49:19;11.00;99.90
24800;DHT22;12897;50.812;4.430;2022-12-29T06:51:47;10.90;99.90
24800;DHT22;12897;50.812;4.430;2022-12-29T06:54:14;11.00;99.90
24800;DHT22;12897;50.812;4.430;2022-12-29T06:56:42;11.00;99.90
24800;DHT22;12897;50.812;4.430;2022-12-29T06:59:10;11.00;99.90
24800;DHT22;12897;50.812;4.430;2022-12-29T07:01:39;10.90;99.90
24800;DHT22;12897;50.812;4.430;2022-12-29T07:04:07;10.90;99.90
24800;DHT22;12897;50.812;4.430;2022-12-29T07:06:34;10.90;99.90
24800;DHT22;12897;50.812;4.430;2022-12-29T07:09:02;11.00;99.90
24800;DHT22;12897;50.812;4.430;2022-12-29T07:11:30;10.90;99.90
24800;DHT22;12897;50.812;4.430;2022-12-29T07:14:01;11.00;99.90
24800;DHT22;12897;50.812;4.430;2022-12-29T07:16:39;10.90;99.90
24800;DHT22;12897;50.812;4.430;2022-12-29T07:19:13;10.80;99.90
24800;DHT22;12897;50.812;4.430;2022-12-29T07:21:48;10.90;99.90
24800;DHT22;12897;50.812;4.430;2022-12-29T07:24:27;10.90;99.90
24800;DHT22;12897;50.812;4.430;2022-12-29T07:27:05;10.80;99.90
24800;DHT22;12897;50.812;4.430;2022-12-29T07:29:38;10.80;99.90
24800;DHT22;12897;50.812;4.430;2022-12-29T07:32:11;10.90;99.90
24800;DHT22;12897;50.812;4.430;2022-12-29T07:34:39;11.00;99.90
24800;DHT22;12897;50.812;4.430;2022-12-29T07:37:06;11.00;99.90
24800;DHT22;12897;50.812;4.430;2022-12-29T07:39:34;10.90;99.90
24800;DHT22;12897;50.812;4.430;2022-12-29T07:42:01;10.90;99.90
24800;DHT22;12897;50.812;4.430;2022-12-29T07:44:29;10.90;99.90
24800;DHT22;12897;50.812;4.430;2022-12-29T07:46:57;10.90;99.90
24800;DHT22;12897;50.812;4.430;2022-12-29T07:49:36;10.90;99.90
24800;DHT22;12897;50.812;4.430;2022-12-29T07:52:04;10.90;99.90
24800;DHT22;12897;50.812;4.430;2022-12-29T07:54:31;10.90;99.90
24800;DHT22;12897;50.812;4.430;2022-12-29T07:56:59;10.90;99.90
24800;DHT22;12897;50.812;4.430;2022-12-29T07:59:28;11.00;99.90
24800;DHT22;12897;50.812;4.430;2022-12-29T08:01:55;11.00;99.90
24800;DHT22;12897;50.812;4.430;2022-12-29T08:04:23;11.00;99.90
24800;DHT22;12897;50.812;4.430;2022-12-29T08:06:53;11.00;99.90
24800;DHT22;12897;50.812;4.430;2022-12-29T08:09:20;11.00;99.90
24800;DHT22;12897;50.812;4.430;2022-12-29T08:11:48;11.00;99.90
24800;DHT22;12897;50.812;4.430;2022-12-29T08:14:16;11.00;99.90
24800;DHT22;12897;50.812;4.430;2022-12-29T08:16:43;11.00;99.90
24800;DHT22;12897;50.812;4.430;2022-12-29T08:19:12;11.10;99.90
24800;DHT22;12897;50.812;4.430;2022-12-29T08:21:42;11.10;99.90
24800;DHT22;12897;50.812;4.430;2022-12-29T08:24:09;11.10;99.90
24800;DHT22;12897;50.812;4.430;2022-12-29T08:26:38;11.20;99.90
24800;DHT22;12897;50.812;4.430;2022-12-29T08:29:06;11.10;99.90
24800;DHT22;12897;50.812;4.430;2022-12-29T08:31:34;11.20;99.90
24800;DHT22;12897;50.812;4.430;2022-12-29T08:34:01;11.10;99.90
24800;DHT22;12897;50.812;4.430;2022-12-29T08:36:31;11.10;99.90
24800;DHT22;12897;50.812;4.430;2022-12-29T08:38:59;11.00;99.90
24800;DHT22;12897;50.812;4.430;2022-12-29T08:41:27;11.00;99.90
24800;DHT22;12897;50.812;4.430;2022-12-29T08:43:55;11.10;99.90
24800;DHT22;12897;50.812;4.430;2022-12-29T08:46:29;11.10;99.90
24800;DHT22;12897;50.812;4.430;2022-12-29T08:48:57;11.10;99.90
24800;DHT22;12897;50.812;4.430;2022-12-29T08:51:24;11.00;99.90
24800;DHT22;12897;50.812;4.430;2022-12-29T08:53:53;11.10;99.90
24800;DHT22;12897;50.812;4.430;2022-12-29T08:56:21;11.10;99.90
24800;DHT22;12897;50.812;4.430;2022-12-29T08:58:51;11.10;99.90
24800;DHT22;12897;50.812;4.430;2022-12-29T09:01:19;11.10;99.90
24800;DHT22;12897;50.812;4.430;2022-12-29T09:03:47;11.10;99.90
24800;DHT22;12897;50.812;4.430;2022-12-29T09:06:16;11.10;99.90
24800;DHT22;12897;50.812;4.430;2022-12-29T09:08:47;11.20;99.90
24800;DHT22;12897;50.812;4.430;2022-12-29T09:11:21;11.10;99.90
24800;DHT22;12897;50.812;4.430;2022-12-29T09:13:48;11.10;99.90
24800;DHT22;12897;50.812;4.430;2022-12-29T09:16:17;11.10;99.90
24800;DHT22;12897;50.812;4.430;2022-12-29T09:18:45;11.20;99.90
24800;DHT22;12897;50.812;4.430;2022-12-29T09:21:13;11.20;99.90
24800;DHT22;12897;50.812;4.430;2022-12-29T09:23:40;11.20;99.90
24800;DHT22;12897;50.812;4.430;2022-12-29T09:26:09;11.30;99.90
24800;DHT22;12897;50.812;4.430;2022-12-29T09:28:36;11.40;99.90
24800;DHT22;12897;50.812;4.430;2022-12-29T09:31:05;11.30;99.90
24800;DHT22;12897;50.812;4.430;2022-12-29T09:33:33;11.20;99.90
24800;DHT22;12897;50.812;4.430;2022-12-29T09:36:01;11.10;99.90
24800;DHT22;12897;50.812;4.430;2022-12-29T09:38:29;11.10;99.90
24800;DHT22;12897;50.812;4.430;2022-12-29T09:41:12;11.10;99.90
24800;DHT22;12897;50.812;4.430;2022-12-29T09:49:18;11.40;99.90
24800;DHT22;12897;50.812;4.430;2022-12-29T09:51:48;11.40;99.90
24800;DHT22;12897;50.812;4.430;2022-12-29T09:54:39;11.40;99.90
24800;DHT22;12897;50.812;4.430;2022-12-29T09:57:40;11.40;99.90
24800;DHT22;12897;50.812;4.430;2022-12-29T10:00:19;11.40;99.90
24800;DHT22;12897;50.812;4.430;2022-12-29T10:02:48;11.30;99.90
24800;DHT22;12897;50.812;4.430;2022-12-29T10:05:40;11.30;99.90
24800;DHT22;12897;50.812;4.430;2022-12-29T10:08:18;11.30;99.90
24800;DHT22;12897;50.812;4.430;2022-12-29T10:11:04;11.20;99.90
24800;DHT22;12897;50.812;4.430;2022-12-29T10:16:49;11.30;99.90
24800;DHT22;12897;50.812;4.430;2022-12-29T10:18:56;11.20;99.90
24800;DHT22;12897;50.812;4.430;2022-12-29T10:24:13;11.40;99.90
24800;DHT22;12897;50.812;4.430;2022-12-29T10:26:42;11.30;99.90
24800;DHT22;12897;50.812;4.430;2022-12-29T10:29:26;11.40;99.90
24800;DHT22;12897;50.812;4.430;2022-12-29T10:32:04;11.40;99.90
24800;DHT22;12897;50.812;4.430;2022-12-29T10:34:37;11.30;99.90
24800;DHT22;12897;50.812;4.430;2022-12-29T10:37:11;11.30;99.90
24800;DHT22;12897;50.812;4.430;2022-12-29T10:39:53;11.40;99.90
24800;DHT22;12897;50.812;4.430;2022-12-29T10:42:56;11.30;99.90
24800;DHT22;12897;50.812;4.430;2022-12-29T10:44:59;11.30;99.90
24800;DHT22;12897;50.812;4.430;2022-12-29T10:47:29;11.40;99.90
24800;DHT22;12897;50.812;4.430;2022-12-29T10:49:57;11.40;99.90
24800;DHT22;12897;50.812;4.430;2022-12-29T10:52:27;11.50;99.90
24800;DHT22;12897;50.812;4.430;2022-12-29T10:55:02;11.50;99.90
24800;DHT22;12897;50.812;4.430;2022-12-29T10:57:32;11.50;99.90
24800;DHT22;12897;50.812;4.430;2022-12-29T11:00:00;11.60;99.90
24800;DHT22;12897;50.812;4.430;2022-12-29T11:05:28;11.50;99.90
24800;DHT22;12897;50.812;4.430;2022-12-29T11:07:58;11.60;99.90
24800;DHT22;12897;50.812;4.430;2022-12-29T11:10:43;11.60;99.90
24800;DHT22;12897;50.812;4.430;2022-12-29T11:13:31;11.50;99.90
24800;DHT22;12897;50.812;4.430;2022-12-29T11:16:07;11.60;99.90
24800;DHT22;12897;50.812;4.430;2022-12-29T11:18:38;11.60;99.90
24800;DHT22;12897;50.812;4.430;2022-12-29T11:21:41;11.60;99.90
24800;DHT22;12897;50.812;4.430;2022-12-29T11:23:48;11.70;99.90
24800;DHT22;12897;50.812;4.430;2022-12-29T11:26:23;11.80;99.90
24800;DHT22;12897;50.812;4.430;2022-12-29T11:31:50;11.80;99.90
24800;DHT22;12897;50.812;4.430;2022-12-29T11:34:26;11.70;99.90
24800;DHT22;12897;50.812;4.430;2022-12-29T11:37:06;11.70;99.90
24800;DHT22;12897;50.812;4.430;2022-12-29T11:39:41;11.50;99.90
24800;DHT22;12897;50.812;4.430;2022-12-29T11:42:20;11.40;99.90
24800;DHT22;12897;50.812;4.430;2022-12-29T11:44:49;11.40;99.90
24800;DHT22;12897;50.812;4.430;2022-12-29T11:47:28;11.20;99.90
24800;DHT22;12897;50.812;4.430;2022-12-29T11:49:55;11.30;99.90
24800;DHT22;12897;50.812;4.430;2022-12-29T11:52:25;11.40;99.90
24800;DHT22;12897;50.812;4.430;2022-12-29T11:54:55;11.40;99.90
24800;DHT22;12897;50.812;4.430;2022-12-29T11:57:24;11.30;99.90
24800;DHT22;12897;50.812;4.430;2022-12-29T11:59:54;11.30;99.90
24800;DHT22;12897;50.812;4.430;2022-12-29T12:05:06;11.30;99.90
24800;DHT22;12897;50.812;4.430;2022-12-29T12:07:38;11.30;99.90
24800;DHT22;12897;50.812;4.430;2022-12-29T12:10:04;11.30;99.90
24800;DHT22;12897;50.812;4.430;2022-12-29T12:12:43;11.30;99.90
24800;DHT22;12897;50.812;4.430;2022-12-29T12:15:15;11.30;99.90
24800;DHT22;12897;50.812;4.430;2022-12-29T12:20:36;11.20;99.90
24800;DHT22;12897;50.812;4.430;2022-12-29T12:23:28;11.10;99.90
24800;DHT22;12897;50.812;4.430;2022-12-29T12:29:12;11.10;99.90
24800;DHT22;12897;50.812;4.430;2022-12-29T12:31:48;11.20;99.90
24800;DHT22;12897;50.812;4.430;2022-12-29T12:34:37;11.00;99.90
24800;DHT22;12897;50.812;4.430;2022-12-29T12:40:27;10.90;99.90
24800;DHT22;12897;50.812;4.430;2022-12-29T12:46:02;11.00;99.90
24800;DHT22;12897;50.812;4.430;2022-12-29T12:56:57;11.10;99.90
24800;DHT22;12897;50.812;4.430;2022-12-29T13:12:46;11.10;99.90
24800;DHT22;12897;50.812;4.430;2022-12-29T13:21:15;11.00;99.90
24800;DHT22;12897;50.812;4.430;2022-12-29T13:23:55;11.10;99.90
24800;DHT22;12897;50.812;4.430;2022-12-29T13:26:18;11.20;99.90
24800;DHT22;12897;50.812;4.430;2022-12-29T13:28:55;11.00;99.90
24800;DHT22;12897;50.812;4.430;2022-12-29T13:31:30;10.90;99.90
24800;DHT22;12897;50.812;4.430;2022-12-29T13:36:43;10.80;99.90
24800;DHT22;12897;50.812;4.430;2022-12-29T13:42:02;10.80;99.90
24800;DHT22;12897;50.812;4.430;2022-12-29T13:44:43;10.70;99.90
24800;DHT22;12897;50.812;4.430;2022-12-29T13:50:03;10.70;99.90
24800;DHT22;12897;50.812;4.430;2022-12-29T13:52:40;10.80;99.90
24800;DHT22;12897;50.812;4.430;2022-12-29T13:55:36;10.80;99.90
24800;DHT22;12897;50.812;4.430;2022-12-29T13:58:20;10.90;99.90
24800;DHT22;12897;50.812;4.430;2022-12-29T14:01:00;10.80;99.90
24800;DHT22;12897;50.812;4.430;2022-12-29T14:03:46;10.70;99.90
24800;DHT22;12897;50.812;4.430;2022-12-29T14:06:28;10.70;99.90
24800;DHT22;12897;50.812;4.430;2022-12-29T14:09:02;10.70;99.90
24800;DHT22;12897;50.812;4.430;2022-12-29T14:11:35;10.90;99.90
24800;DHT22;12897;50.812;4.430;2022-12-29T14:14:23;11.00;99.90
24800;DHT22;12897;50.812;4.430;2022-12-29T14:16:53;11.00;99.90
24800;DHT22;12897;50.812;4.430;2022-12-29T14:19:30;11.10;99.90
24800;DHT22;12897;50.812;4.430;2022-12-29T14:22:06;11.20;99.90
24800;DHT22;12897;50.812;4.430;2022-12-29T14:24:38;11.20;99.90
24800;DHT22;12897;50.812;4.430;2022-12-29T14:29:45;11.20;99.90
24800;DHT22;12897;50.812;4.430;2022-12-29T14:35:00;11.00;99.90
24800;DHT22;12897;50.812;4.430;2022-12-29T14:37:31;11.10;99.90
24800;DHT22;12897;50.812;4.430;2022-12-29T14:42:35;11.10;99.90
24800;DHT22;12897;50.812;4.430;2022-12-29T14:45:20;11.10;99.90
24800;DHT22;12897;50.812;4.430;2022-12-29T14:47:39;10.90;99.90
24800;DHT22;12897;50.812;4.430;2022-12-29T14:52:55;10.90;99.90
24800;DHT22;12897;50.812;4.430;2022-12-29T14:55:47;10.90;99.90
24800;DHT22;12897;50.812;4.430;2022-12-29T14:58:20;11.00;99.90
24800;DHT22;12897;50.812;4.430;2022-12-29T15:00:49;11.10;99.90
24800;DHT22;12897;50.812;4.430;2022-12-29T15:03:22;10.90;99.90
24800;DHT22;12897;50.812;4.430;2022-12-29T15:06:07;10.70;99.90
24800;DHT22;12897;50.812;4.430;2022-12-29T15:08:40;10.70;99.90
24800;DHT22;12897;50.812;4.430;2022-12-29T15:11:31;10.70;99.90
24800;DHT22;12897;50.812;4.430;2022-12-29T15:13:54;10.50;99.90
24800;DHT22;12897;50.812;4.430;2022-12-29T15:16:25;10.20;99.90
24800;DHT22;12897;50.812;4.430;2022-12-29T15:18:54;9.90;99.90
24800;DHT22;12897;50.812;4.430;2022-12-29T15:21:30;9.70;99.90
24800;DHT22;12897;50.812;4.430;2022-12-29T15:23:58;9.40;99.90
24800;DHT22;12897;50.812;4.430;2022-12-29T15:26:44;9.30;99.90
24800;DHT22;12897;50.812;4.430;2022-12-29T15:29:40;9.20;99.90
24800;DHT22;12897;50.812;4.430;2022-12-29T15:34:45;9.00;99.90
24800;DHT22;12897;50.812;4.430;2022-12-29T15:37:33;8.90;99.90
24800;DHT22;12897;50.812;4.430;2022-12-29T15:40:03;8.80;99.90
24800;DHT22;12897;50.812;4.430;2022-12-29T15:42:47;8.70;99.90
24800;DHT22;12897;50.812;4.430;2022-12-29T15:45:14;8.80;99.90
24800;DHT22;12897;50.812;4.430;2022-12-29T15:47:44;8.80;99.90
24800;DHT22;12897;50.812;4.430;2022-12-29T15:50:35;8.80;99.90
24800;DHT22;12897;50.812;4.430;2022-12-29T15:52:59;8.70;99.90
24800;DHT22;12897;50.812;4.430;2022-12-29T15:55:37;8.80;99.90
24800;DHT22;12897;50.812;4.430;2022-12-29T15:58:03;8.90;99.90
24800;DHT22;12897;50.812;4.430;2022-12-29T16:00:33;9.00;99.90
24800;DHT22;12897;50.812;4.430;2022-12-29T16:03:05;9.20;99.90
24800;DHT22;12897;50.812;4.430;2022-12-29T16:05:38;9.20;99.90
24800;DHT22;12897;50.812;4.430;2022-12-29T16:08:35;9.10;99.90
24800;DHT22;12897;50.812;4.430;2022-12-29T16:11:29;9.00;99.90
24800;DHT22;12897;50.812;4.430;2022-12-29T16:13:56;8.90;99.90
24800;DHT22;12897;50.812;4.430;2022-12-29T16:16:29;8.90;99.90
24800;DHT22;12897;50.812;4.430;2022-12-29T16:18:57;8.80;99.90
24800;DHT22;12897;50.812;4.430;2022-12-29T16:21:31;8.80;99.90
24800;DHT22;12897;50.812;4.430;2022-12-29T16:24:00;8.80;99.90
24800;DHT22;12897;50.812;4.430;2022-12-29T16:26:29;8.80;99.90
24800;DHT22;12897;50.812;4.430;2022-12-29T16:28:59;8.80;99.90
24800;DHT22;12897;50.812;4.430;2022-12-29T16:31:33;8.80;99.90
24800;DHT22;12897;50.812;4.430;2022-12-29T16:34:12;8.70;99.90
24800;DHT22;12897;50.812;4.430;2022-12-29T16:39:38;8.70;99.90
24800;DHT22;12897;50.812;4.430;2022-12-29T16:42:43;8.80;99.90
24800;DHT22;12897;50.812;4.430;2022-12-29T16:50:37;8.70;99.90
24800;DHT22;12897;50.812;4.430;2022-12-29T16:53:05;8.60;99.90
24800;DHT22;12897;50.812;4.430;2022-12-29T16:55:34;8.60;99.90
24800;DHT22;12897;50.812;4.430;2022-12-29T16:58:02;8.70;99.90
24800;DHT22;12897;50.812;4.430;2022-12-29T17:00:33;8.80;99.90
24800;DHT22;12897;50.812;4.430;2022-12-29T17:03:00;8.90;99.90
24800;DHT22;12897;50.812;4.430;2022-12-29T17:05:29;8.90;99.90
24800;DHT22;12897;50.812;4.430;2022-12-29T17:07:56;8.80;99.90
24800;DHT22;12897;50.812;4.430;2022-12-29T17:10:26;8.90;99.90
24800;DHT22;12897;50.812;4.430;2022-12-29T17:12:55;9.00;99.90
24800;DHT22;12897;50.812;4.430;2022-12-29T17:15:27;8.90;99.90
24800;DHT22;12897;50.812;4.430;2022-12-29T17:18:00;8.80;99.90
24800;DHT22;12897;50.812;4.430;2022-12-29T17:20:29;8.80;99.90
24800;DHT22;12897;50.812;4.430;2022-12-29T17:22:58;8.90;99.90
24800;DHT22;12897;50.812;4.430;2022-12-29T17:25:34;8.90;99.90
24800;DHT22;12897;50.812;4.430;2022-12-29T17:28:07;8.90;99.90
24800;DHT22;12897;50.812;4.430;2022-12-29T17:30:34;8.80;99.90
24800;DHT22;12897;50.812;4.430;2022-12-29T17:33:04;8.80;99.90
24800;DHT22;12897;50.812;4.430;2022-12-29T17:35:35;8.70;99.90
24800;DHT22;12897;50.812;4.430;2022-12-29T17:38:03;8.70;99.90
24800;DHT22;12897;50.812;4.430;2022-12-29T17:40:32;8.80;99.90
24800;DHT22;12897;50.812;4.430;2022-12-29T17:43:01;8.80;99.90
24800;DHT22;12897;50.812;4.430;2022-12-29T17:45:31;8.80;99.90
24800;DHT22;12897;50.812;4.430;2022-12-29T17:47:59;8.70;99.90
24800;DHT22;12897;50.812;4.430;2022-12-29T17:50:28;8.70;99.90
24800;DHT22;12897;50.812;4.430;2022-12-29T17:52:59;8.80;99.90
24800;DHT22;12897;50.812;4.430;2022-12-29T17:55:28;8.70;99.90
24800;DHT22;12897;50.812;4.430;2022-12-29T17:57:56;8.90;99.90
24800;DHT22;12897;50.812;4.430;2022-12-29T18:00:25;8.80;99.90